Time;durP1;ratioP1;P1;durP2;ratioP2;P2;SDS_P1;SDS_P2;PMS_P1;PMS_P2;Temp;Humidity;BMP_temperature;BMP_pressure;BME280_temperature;BME280_humidity;BME280_pressure;Samples;Min_cycle;Max_cycle;Signal;HPM_P1;HPM_P2
2024/02/15 00:01:04;;;;;;;13.45;8.85;;;;;;;3.07;49.42;94236.91;5049469;28;20052;-71
2024/02/15 00:03:31;;;;;;;11.85;9.02;;;;;;;3.08;49.14;94232.44;5049812;28;20449;-71
2024/02/15 00:05:57;;;;;;;13.32;9.50;;;;;;;2.98;49.36;94233.19;5049358;28;20064;-71
2024/02/15 00:08:24;;;;;;;11.82;9.02;;;;;;;2.70;50.02;94225.63;5052433;28;20067;-72
2024/02/15 00:10:50;;;;;;;11.88;9.32;;;;;;;2.71;50.22;94229.84;5053349;28;20524;-71
2024/02/15 00:13:15;;;;;;;15.30;9.18;;;;;;;2.92;49.80;94232.34;5053172;28;20033;-71
2024/02/15 00:15:41;;;;;;;14.57;10.25;;;;;;;2.87;49.76;94234.16;5053413;28;20033;-71
2024/02/15 00:18:07;;;;;;;12.70;9.10;;;;;;;2.89;49.80;94237.34;5053217;28;20425;-72
2024/02/15 00:20:33;;;;;;;12.13;9.43;;;;;;;2.88;49.71;94230.50;5053577;28;20048;-72
2024/02/15 00:22:59;;;;;;;11.38;9.25;;;;;;;2.83;49.84;94227.84;5053285;28;20083;-72
2024/02/15 00:25:25;;;;;;;15.25;9.70;;;;;;;2.72;50.09;94247.19;5053011;28;20037;-71
2024/02/15 00:27:51;;;;;;;14.23;8.85;;;;;;;2.65;50.05;94215.91;5052778;28;20043;-71
2024/02/15 00:30:17;;;;;;;13.85;9.35;;;;;;;2.92;49.46;94247.31;5053252;28;20449;-71
2024/02/15 00:32:42;;;;;;;12.30;8.73;;;;;;;2.86;49.75;94246.50;5053314;28;20044;-72
2024/02/15 00:35:09;;;;;;;11.52;8.65;;;;;;;3.05;49.36;94249.50;5052558;28;20116;-71
2024/02/15 00:37:35;;;;;;;11.70;8.82;;;;;;;2.97;49.33;94249.97;5052765;28;20029;-71
2024/02/15 00:40:04;;;;;;;11.85;8.48;;;;;;;2.97;49.22;94231.59;5052726;28;20399;-71
2024/02/15 00:42:33;;;;;;;12.40;9.63;;;;;;;3.01;49.10;94253.69;5052562;28;20324;-71
2024/02/15 00:44:58;;;;;;;8.93;8.02;;;;;;;3.18;48.97;94256.94;5052586;28;20047;-71
2024/02/15 00:47:24;;;;;;;11.75;8.70;;;;;;;3.16;49.14;94243.25;5053368;28;20094;-72
2024/02/15 00:49:50;;;;;;;13.52;8.05;;;;;;;2.98;49.00;94235.81;5052612;28;20037;-71
2024/02/15 00:52:17;;;;;;;11.05;8.95;;;;;;;3.22;48.75;94252.75;5052671;28;20037;-71
2024/02/15 00:54:42;;;;;;;16.17;10.00;;;;;;;3.38;48.30;94243.84;5052384;28;20059;-71
2024/02/15 00:57:08;;;;;;;13.63;8.32;;;;;;;3.16;48.76;94247.69;5052643;28;20723;-72
2024/02/15 00:59:35;;;;;;;11.85;8.73;;;;;;;2.99;49.00;94239.22;5053107;28;20032;-72
2024/02/15 01:02:02;;;;;;;10.25;8.35;;;;;;;3.25;48.49;94244.31;5052170;28;20039;-71
2024/02/15 01:04:28;;;;;;;11.85;8.45;;;;;;;3.13;48.51;94233.25;5052404;28;20025;-72
2024/02/15 01:06:53;;;;;;;12.75;8.90;;;;;;;3.37;48.61;94255.44;5052463;28;20033;-71
2024/02/15 01:09:18;;;;;;;12.80;8.45;;;;;;;3.31;48.54;94238.06;5052253;28;20482;-71
2024/02/15 01:11:44;;;;;;;15.18;7.85;;;;;;;3.19;48.39;94231.41;5052687;28;20051;-71
2024/02/15 01:14:09;;;;;;;12.98;8.25;;;;;;;3.33;48.53;94248.31;5051784;28;20559;-71
2024/02/15 01:16:36;;;;;;;11.55;8.98;;;;;;;3.43;48.29;94232.56;5052130;28;20071;-71
2024/02/15 01:19:02;;;;;;;11.65;8.35;;;;;;;3.44;48.03;94244.66;5051648;28;20033;-71
2024/02/15 01:21:27;;;;;;;11.57;8.45;;;;;;;3.14;48.21;94245.31;5052095;28;20128;-71
2024/02/15 01:23:53;;;;;;;13.25;8.43;;;;;;;3.01;48.95;94239.75;5051946;28;20098;-71
2024/02/15 01:26:20;;;;;;;14.15;9.38;;;;;;;3.11;49.14;94245.06;5052652;28;20052;-71
2024/02/15 01:28:45;;;;;;;10.93;8.73;;;;;;;2.99;49.14;94240.00;5051395;28;20033;-72
2024/02/15 01:31:11;;;;;;;14.55;9.38;;;;;;;3.09;48.67;94236.63;5051742;28;20040;-71
2024/02/15 01:33:37;;;;;;;14.02;8.63;;;;;;;3.14;48.61;94245.31;5051764;28;20112;-72
2024/02/15 01:36:03;;;;;;;10.93;8.10;;;;;;;2.96;48.79;94217.66;5051556;28;20056;-71
2024/02/15 01:38:29;;;;;;;11.90;8.20;;;;;;;3.24;48.76;94240.13;5051895;28;20397;-70
2024/02/15 01:40:54;;;;;;;10.50;7.82;;;;;;;3.11;48.25;94211.69;5051807;28;20056;-71
2024/02/15 01:43:20;;;;;;;11.75;8.05;;;;;;;3.22;48.44;94242.22;5051497;28;20559;-71
2024/02/15 01:45:46;;;;;;;10.07;7.45;;;;;;;3.28;48.59;94246.44;5051584;28;20040;-72
2024/02/15 01:48:14;;;;;;;11.20;7.55;;;;;;;3.16;48.52;94243.25;5051432;28;20397;-71
2024/02/15 01:50:40;;;;;;;13.45;8.52;;;;;;;2.99;48.59;94213.72;5051684;28;20025;-73
2024/02/15 01:53:08;;;;;;;12.88;8.50;;;;;;;3.36;48.00;94248.59;5051457;28;20031;-72
2024/02/15 01:55:33;;;;;;;10.32;8.20;;;;;;;3.29;48.49;94248.03;5050934;28;20029;-72
2024/02/15 01:58:00;;;;;;;11.50;7.95;;;;;;;3.38;48.50;94235.97;5051644;28;20041;-72
2024/02/15 02:00:26;;;;;;;11.77;9.00;;;;;;;3.34;48.33;94242.78;5051025;28;20086;-71
2024/02/15 02:02:53;;;;;;;12.85;9.35;;;;;;;3.49;48.17;94246.50;5051415;28;20033;-71
2024/02/15 02:05:19;;;;;;;13.13;9.23;;;;;;;3.37;48.52;94247.53;5051899;28;20017;-71
2024/02/15 02:07:45;;;;;;;10.90;8.45;;;;;;;3.53;48.19;94237.06;5051284;28;20029;-71
2024/02/15 02:10:12;;;;;;;12.95;8.20;;;;;;;3.55;47.58;94229.72;5051220;28;20534;-71
2024/02/15 02:12:39;;;;;;;9.70;7.88;;;;;;;3.51;47.50;94226.03;5051234;28;20075;-72
2024/02/15 02:15:08;;;;;;;10.82;8.18;;;;;;;3.35;47.91;94249.63;5050963;28;20039;-71
2024/02/15 02:17:35;;;;;;;11.85;9.40;;;;;;;3.36;48.19;94247.78;5051544;28;20053;-71
2024/02/15 02:20:01;;;;;;;12.27;8.48;;;;;;;3.22;48.42;94247.47;5050669;28;20094;-71
2024/02/15 02:22:29;;;;;;;12.10;8.00;;;;;;;3.38;48.10;94257.00;5050941;28;20581;-72
2024/02/15 02:25:08;;;;;;;9.05;7.30;;;;;;;3.52;47.51;94256.53;5050881;28;20502;-71
2024/02/15 02:27:35;;;;;;;13.88;8.20;;;;;;;2.93;48.05;94217.38;5032851;28;20463;-72
2024/02/15 02:30:06;;;;;;;11.45;9.95;;;;;;;2.94;48.79;94245.22;5050436;28;20057;-72
2024/02/15 02:32:33;;;;;;;13.20;8.68;;;;;;;3.10;48.90;94249.50;5051236;28;20029;-71
2024/02/15 02:34:59;;;;;;;14.77;8.55;;;;;;;2.87;48.68;94228.91;5050522;28;20039;-72
2024/02/15 02:37:24;;;;;;;13.82;8.98;;;;;;;3.12;48.56;94263.19;5050593;28;20040;-71
2024/02/15 02:39:50;;;;;;;12.82;8.88;;;;;;;2.85;48.81;94257.25;5050229;28;20099;-71
2024/02/15 02:42:16;;;;;;;11.13;8.68;;;;;;;3.08;48.53;94266.59;5050308;28;20036;-72
2024/02/15 02:44:41;;;;;;;16.77;9.25;;;;;;;2.99;48.39;94242.63;5051041;28;20033;-71
2024/02/15 02:47:06;;;;;;;10.45;8.38;;;;;;;2.62;48.93;94255.00;5050540;28;20517;-71
2024/02/15 02:49:34;;;;;;;11.73;7.95;;;;;;;2.74;49.08;94253.00;5050411;28;20406;-72
2024/02/15 02:52:00;;;;;;;13.63;8.63;;;;;;;2.90;49.14;94262.53;5050236;28;20047;-71
2024/02/15 02:54:25;;;;;;;12.45;8.98;;;;;;;2.67;49.35;94260.28;5050109;28;20045;-71
2024/02/15 02:56:50;;;;;;;12.60;8.50;;;;;;;2.90;49.26;94254.66;5050290;28;20021;-71
2024/02/15 02:59:16;;;;;;;12.90;8.90;;;;;;;3.25;48.21;94262.72;5050861;28;20013;-72
2024/02/15 03:01:42;;;;;;;10.75;8.60;;;;;;;3.21;47.70;94251.16;5050238;28;20106;-71
2024/02/15 03:04:08;;;;;;;13.73;8.32;;;;;;;3.10;48.34;94264.50;5050046;28;20072;-72
2024/02/15 03:06:33;;;;;;;15.15;8.85;;;;;;;3.07;48.19;94265.81;5050267;28;20082;-69
2024/02/15 03:08:59;;;;;;;13.45;8.60;;;;;;;2.82;48.82;94255.16;5050313;28;20108;-71
2024/02/15 03:11:24;;;;;;;12.20;9.75;;;;;;;2.79;48.97;94253.81;5050737;28;20677;-71
2024/02/15 03:13:50;;;;;;;14.27;9.20;;;;;;;3.02;49.01;94268.41;5049958;28;20567;-71
2024/02/15 03:16:16;;;;;;;12.40;8.07;;;;;;;2.76;48.92;94237.75;5050031;28;20375;-71
2024/02/15 03:18:42;;;;;;;11.82;8.55;;;;;;;2.86;48.88;94264.09;5049805;28;20055;-71
2024/02/15 03:21:10;;;;;;;13.77;9.93;;;;;;;2.82;48.80;94252.53;5031978;28;20481;-71
2024/02/15 03:23:36;;;;;;;11.73;8.75;;;;;;;2.90;49.16;94275.69;5050162;28;20060;-71
2024/02/15 03:26:03;;;;;;;11.20;8.60;;;;;;;2.91;48.72;94272.00;5049852;28;20090;-71
2024/02/15 03:28:29;;;;;;;13.70;10.05;;;;;;;2.96;48.94;94275.47;5050002;28;20029;-71
2024/02/15 03:30:55;;;;;;;13.30;9.25;;;;;;;2.93;48.88;94277.81;5049887;28;20040;-71
2024/02/15 03:33:26;;;;;;;12.30;8.63;;;;;;;3.17;48.68;94283.47;5049811;28;20041;-71
2024/02/15 03:35:51;;;;;;;14.15;8.50;;;;;;;3.35;48.31;94283.03;5049769;28;20029;-70
2024/02/15 03:38:17;;;;;;;10.25;7.88;;;;;;;3.38;48.07;94277.22;5050936;28;20095;-71
2024/02/15 03:40:42;;;;;;;15.85;10.25;;;;;;;3.26;48.17;94266.16;5049593;28;20045;-71
2024/02/15 03:43:08;;;;;;;15.40;10.85;;;;;;;3.18;48.30;94277.16;5053135;28;20037;-71
2024/02/15 03:45:33;;;;;;;17.23;9.90;;;;;;;3.08;48.68;94259.50;5053661;28;20596;-71
2024/02/15 03:47:59;;;;;;;14.68;10.27;;;;;;;2.94;49.34;94282.00;5054038;28;20025;-71
2024/02/15 03:50:24;;;;;;;13.90;10.35;;;;;;;3.00;49.32;94270.47;5054218;28;20025;-71
2024/02/15 03:52:50;;;;;;;16.90;10.88;;;;;;;3.24;49.02;94279.53;5053708;28;20090;-71
2024/02/15 03:55:16;;;;;;;13.93;9.88;;;;;;;3.38;48.96;94277.22;5053679;28;20029;-71
2024/02/15 03:57:43;;;;;;;13.18;9.82;;;;;;;3.42;48.55;94275.69;5053412;28;20658;-71
2024/02/15 04:00:11;;;;;;;16.63;9.60;;;;;;;3.54;48.28;94275.47;5053439;28;20075;-71
2024/02/15 04:02:37;;;;;;;14.95;10.25;;;;;;;3.25;47.82;94275.88;5036028;28;20485;-71
2024/02/15 04:05:04;;;;;;;13.98;8.50;;;;;;;3.08;48.36;94277.91;5053688;28;20037;-71
2024/02/15 04:07:30;;;;;;;20.65;10.25;;;;;;;3.00;48.76;94267.84;5053312;28;20215;-71
2024/02/15 04:09:56;;;;;;;12.45;9.20;;;;;;;3.05;48.04;94257.38;5053471;28;20521;-71
2024/02/15 04:12:21;;;;;;;13.10;9.07;;;;;;;3.34;47.93;94284.84;5053193;28;20029;-71
2024/02/15 04:14:47;;;;;;;14.40;10.02;;;;;;;3.25;47.69;94268.00;5053529;28;20021;-70
2024/02/15 04:17:16;;;;;;;13.88;9.18;;;;;;;3.24;47.77;94279.53;5053714;28;20055;-71
2024/02/15 04:19:44;;;;;;;20.52;13.40;;;;;;;2.83;48.68;94281.16;5053080;28;20090;-71
2024/02/15 04:22:10;;;;;;;18.60;10.85;;;;;;;2.76;49.39;94292.91;5053346;28;20132;-71
2024/02/15 04:24:39;;;;;;;15.02;10.02;;;;;;;2.89;48.92;94293.28;5053184;28;20112;-71
2024/02/15 04:27:12;;;;;;;13.45;9.73;;;;;;;2.80;48.97;94297.41;5053126;28;20032;-71
2024/02/15 04:29:40;;;;;;;16.45;10.50;;;;;;;2.65;49.11;94288.63;5053957;28;20056;-71
2024/02/15 04:32:08;;;;;;;13.20;9.07;;;;;;;2.46;49.69;94283.78;5052798;28;20043;-71
2024/02/15 04:34:34;;;;;;;13.50;9.60;;;;;;;2.67;49.30;94283.94;5052818;28;20081;-71
2024/02/15 04:37:00;;;;;;;15.18;10.25;;;;;;;2.72;49.32;94297.09;5053037;28;20033;-71
2024/02/15 04:39:29;;;;;;;13.27;8.98;;;;;;;2.31;49.97;94309.91;5052764;28;20037;-71
2024/02/15 04:41:55;;;;;;;14.38;10.15;;;;;;;2.30;49.98;94297.84;5052814;28;20024;-71
2024/02/15 04:44:21;;;;;;;15.70;11.13;;;;;;;2.21;50.25;94301.13;5053180;28;20592;-70
2024/02/15 04:46:49;;;;;;;15.02;10.15;;;;;;;2.18;50.63;94299.81;5052698;28;20037;-71
2024/02/15 04:49:15;;;;;;;16.92;11.60;;;;;;;2.17;50.36;94303.47;5052683;28;20063;-71
2024/02/15 04:51:41;;;;;;;15.57;10.35;;;;;;;2.26;50.34;94307.22;5052528;28;20432;-71
2024/02/15 04:54:07;;;;;;;19.85;10.95;;;;;;;1.94;50.80;94295.91;5051661;28;20459;-71
2024/02/15 04:56:33;;;;;;;14.95;10.20;;;;;;;1.92;50.68;94295.34;5052821;28;20501;-71
2024/02/15 04:58:58;;;;;;;15.93;10.73;;;;;;;1.92;50.71;94305.84;5052221;28;20037;-71
2024/02/15 05:01:24;;;;;;;17.67;10.02;;;;;;;1.94;50.70;94309.81;5034332;28;20056;-71
2024/02/15 05:03:49;;;;;;;15.70;10.27;;;;;;;1.89;51.16;94317.63;5034159;28;20535;-71
2024/02/15 05:06:15;;;;;;;17.73;11.30;;;;;;;1.98;50.80;94336.34;5052152;28;20733;-71
2024/02/15 05:08:43;;;;;;;18.38;11.20;;;;;;;1.94;51.39;94335.25;5052742;28;20039;-71
2024/02/15 05:11:17;;;;;;;14.63;9.93;;;;;;;2.13;50.85;94341.75;5052243;28;20044;-71
2024/02/15 05:13:44;;;;;;;16.65;9.95;;;;;;;2.07;50.62;94334.84;5052112;28;20048;-71
2024/02/15 05:16:10;;;;;;;18.08;10.93;;;;;;;1.84;51.21;94320.16;5051955;28;20039;-71
2024/02/15 05:18:37;;;;;;;12.70;9.15;;;;;;;2.04;50.78;94341.41;5052097;28;20040;-71
2024/02/15 05:21:03;;;;;;;15.63;10.77;;;;;;;1.94;51.12;94324.75;5052184;28;20103;-71
2024/02/15 05:23:29;;;;;;;15.50;10.32;;;;;;;2.09;50.71;94345.91;5052688;28;20020;-70
2024/02/15 05:25:56;;;;;;;16.95;9.95;;;;;;;2.06;50.56;94333.28;5052056;28;20098;-71
2024/02/15 05:28:26;;;;;;;13.57;9.98;;;;;;;2.11;50.28;94328.06;5051260;28;20033;-71
2024/02/15 05:31:19;;;;;;;16.98;9.50;;;;;;;2.14;50.17;94345.97;5052170;28;20059;-71
2024/02/15 05:33:48;;;;;;;12.77;9.35;;;;;;;2.15;50.55;94346.75;5051805;28;20041;-71
2024/02/15 05:36:14;;;;;;;13.02;9.80;;;;;;;1.92;50.44;94326.81;5051900;28;20055;-71
2024/02/15 05:38:40;;;;;;;16.48;11.25;;;;;;;1.80;50.78;94329.56;5052091;28;20486;-70
2024/02/15 05:41:07;;;;;;;15.75;9.93;;;;;;;1.90;51.10;94342.03;5051592;28;20498;-71
2024/02/15 05:43:36;;;;;;;17.83;10.13;;;;;;;1.86;51.49;94354.84;5049906;28;20029;-71
2024/02/15 05:46:06;;;;;;;14.20;9.38;;;;;;;1.87;51.17;94339.88;5050075;28;20033;-71
2024/02/15 05:48:34;;;;;;;14.68;9.50;;;;;;;1.46;51.55;94312.41;5050426;28;20699;-71
2024/02/15 05:51:03;;;;;;;14.25;9.50;;;;;;;1.61;51.62;94352.69;5049878;28;20047;-71
2024/02/15 05:53:29;;;;;;;15.55;10.43;;;;;;;1.57;51.73;94351.59;5050270;28;20021;-71
2024/02/15 05:55:57;;;;;;;15.35;9.82;;;;;;;1.71;51.88;94361.72;5050247;28;20033;-71
2024/02/15 05:58:26;;;;;;;16.80;9.68;;;;;;;1.71;51.59;94356.47;5032390;28;20168;-71
2024/02/15 06:00:51;;;;;;;13.00;9.68;;;;;;;1.74;51.44;94369.09;5050316;28;20036;-71
2024/02/15 06:03:17;;;;;;;15.23;9.95;;;;;;;1.78;51.54;94362.31;5050432;28;20028;-71
2024/02/15 06:05:43;;;;;;;19.15;9.98;;;;;;;1.84;51.23;94361.34;5050442;28;20040;-71
2024/02/15 06:08:10;;;;;;;13.13;8.75;;;;;;;1.95;50.88;94371.75;5051122;28;20029;-71
2024/02/15 06:10:36;;;;;;;13.23;9.25;;;;;;;1.77;50.95;94360.72;5051274;28;20087;-71
2024/02/15 06:13:01;;;;;;;15.52;9.63;;;;;;;1.77;51.42;94366.75;5050954;28;20037;-71
2024/02/15 06:15:27;;;;;;;16.13;8.82;;;;;;;1.38;52.19;94368.63;5050994;28;20036;-71
2024/02/15 06:17:52;;;;;;;14.82;8.98;;;;;;;1.58;52.03;94378.59;5050436;28;20482;-70
2024/02/15 06:20:19;;;;;;;12.85;9.40;;;;;;;1.63;51.58;94376.84;5051784;28;20021;-71
2024/02/15 06:22:46;;;;;;;13.95;8.93;;;;;;;1.47;52.03;94361.94;5050815;28;20048;-71
2024/02/15 06:25:13;;;;;;;13.80;9.15;;;;;;;1.43;52.17;94381.00;5050381;28;20033;-71
2024/02/15 06:27:40;;;;;;;14.60;9.45;;;;;;;1.66;51.64;94392.09;5049761;28;20040;-71
2024/02/15 06:41:08;;;;;;;18.40;9.68;;;;;;;2.46;49.76;94401.91;5050062;28;20091;-71
2024/02/15 06:43:34;;;;;;;17.33;9.45;;;;;;;2.23;49.97;94396.97;5050405;28;20029;-71
2024/02/15 06:46:01;;;;;;;15.55;9.57;;;;;;;2.05;50.84;94389.44;5050338;28;20040;-71
2024/02/15 06:48:26;;;;;;;20.42;9.23;;;;;;;2.17;50.68;94405.81;5050048;28;20127;-71
2024/02/15 06:50:52;;;;;;;14.77;9.98;;;;;;;2.04;50.23;94404.38;5049377;28;20151;-71
2024/02/15 06:53:20;;;;;;;12.20;8.82;;;;;;;2.06;50.38;94396.25;5049913;28;20116;-71
2024/02/15 06:55:48;;;;;;;13.45;8.57;;;;;;;1.82;50.63;94374.69;5048999;28;20312;-71
2024/02/15 06:58:15;;;;;;;13.90;9.35;;;;;;;2.10;50.35;94402.59;5049312;28;20033;-72
2024/02/15 07:00:42;;;;;;;18.88;9.50;;;;;;;2.12;50.29;94415.47;5048901;28;20144;-72
2024/02/15 07:03:08;;;;;;;15.18;8.20;;;;;;;1.98;50.39;94409.81;5049114;28;20061;-70
2024/02/15 07:05:34;;;;;;;12.95;9.43;;;;;;;2.16;50.20;94411.34;5050168;28;20024;-71
2024/02/15 07:08:00;;;;;;;13.23;8.73;;;;;;;2.22;50.56;94402.47;5049725;28;20072;-71
2024/02/15 07:10:26;;;;;;;14.23;8.43;;;;;;;2.13;50.51;94375.88;5049896;28;20522;-71
2024/02/15 07:12:51;;;;;;;12.63;8.75;;;;;;;2.40;49.62;94405.53;5049625;28;20037;-70
2024/02/15 07:15:17;;;;;;;13.70;8.95;;;;;;;2.44;49.96;94396.16;5049527;28;20413;-72
2024/02/15 07:17:43;;;;;;;12.13;8.43;;;;;;;2.46;49.58;94399.31;5049718;28;20112;-71
2024/02/15 07:20:11;;;;;;;11.95;8.77;;;;;;;2.59;49.27;94399.97;5049194;28;20056;-71
2024/02/15 07:22:38;;;;;;;14.00;8.75;;;;;;;2.43;49.43;94397.19;5049375;28;20032;-71
2024/02/15 07:25:04;;;;;;;21.00;9.40;;;;;;;2.46;49.37;94385.38;5049658;28;20040;-71
2024/02/15 07:27:30;;;;;;;12.30;8.77;;;;;;;2.28;50.00;94394.41;5050007;28;20090;-71
2024/02/15 07:29:55;;;;;;;12.25;8.43;;;;;;;2.49;49.48;94385.69;5050083;28;20029;-71
2024/02/15 07:32:21;;;;;;;14.15;8.93;;;;;;;2.41;49.91;94393.19;5050901;28;20025;-71
2024/02/15 07:34:47;;;;;;;20.08;8.70;;;;;;;2.64;49.03;94392.13;5050018;28;20125;-71
2024/02/15 07:37:15;;;;;;;11.40;8.48;;;;;;;2.56;49.20;94382.06;5049853;28;20037;-71
2024/02/15 07:39:40;;;;;;;12.50;8.75;;;;;;;2.60;48.96;94386.56;5049321;28;20517;-70
2024/02/15 07:42:08;;;;;;;11.75;8.35;;;;;;;2.57;49.07;94381.00;5049926;28;20041;-71
2024/02/15 07:44:36;;;;;;;12.48;8.00;;;;;;;2.72;48.77;94381.16;5050294;28;20028;-71
2024/02/15 07:47:02;;;;;;;18.05;9.48;;;;;;;2.70;48.09;94380.59;5049452;28;20025;-73
2024/02/15 07:49:28;;;;;;;13.88;8.70;;;;;;;2.74;48.69;94379.09;5049818;28;20025;-71
2024/02/15 07:51:53;;;;;;;11.85;8.00;;;;;;;2.68;48.81;94393.19;5049473;28;20044;-71
2024/02/15 07:54:22;;;;;;;11.90;8.48;;;;;;;2.60;48.77;94385.78;5049270;28;20490;-71
2024/02/15 07:56:48;;;;;;;13.00;8.68;;;;;;;2.73;48.23;94380.91;5049508;28;20513;-70
2024/02/15 07:59:17;;;;;;;14.55;9.15;;;;;;;2.44;48.40;94333.13;5050252;28;20215;-71
2024/02/15 08:01:43;;;;;;;14.98;8.68;;;;;;;2.89;48.15;94379.22;5049576;28;20033;-71
2024/02/15 08:04:09;;;;;;;12.13;8.27;;;;;;;2.97;48.09;94386.63;5049195;28;20398;-71
2024/02/15 08:06:36;;;;;;;9.25;7.88;;;;;;;2.89;48.31;94376.59;5049044;28;20106;-71
2024/02/15 08:09:06;;;;;;;14.50;9.18;;;;;;;2.81;48.58;94366.50;5049035;28;20029;-71
2024/02/15 08:11:31;;;;;;;15.00;9.00;;;;;;;2.81;48.50;94351.53;5049171;28;20082;-71
2024/02/15 08:13:59;;;;;;;14.13;8.32;;;;;;;2.92;48.83;94368.19;5048993;28;20057;-70
2024/02/15 08:16:28;;;;;;;16.55;9.32;;;;;;;3.09;48.85;94378.53;5049331;28;20029;-71
2024/02/15 08:18:57;;;;;;;12.43;8.23;;;;;;;2.93;48.73;94381.06;5049258;28;20037;-71
2024/02/15 08:21:41;;;;;;;17.38;9.10;;;;;;;2.87;48.94;94371.56;5049565;28;20041;-71
2024/02/15 08:24:06;;;;;;;17.58;8.60;;;;;;;3.12;48.79;94376.22;5049329;28;20048;-71
2024/02/15 08:26:38;;;;;;;13.23;8.50;;;;;;;3.11;48.26;94382.50;5049975;28;20398;-71
2024/02/15 08:29:05;;;;;;;15.07;8.00;;;;;;;2.95;48.81;94363.22;5050954;28;20036;-71
2024/02/15 08:31:31;;;;;;;16.25;9.40;;;;;;;3.10;48.55;94367.78;5052750;28;20032;-71
2024/02/15 08:33:57;;;;;;;20.83;10.55;;;;;;;2.96;49.59;94369.25;5052756;28;20723;-71
2024/02/15 08:36:22;;;;;;;14.43;8.45;;;;;;;3.11;49.32;94366.75;5052882;28;20029;-71
2024/02/15 08:38:51;;;;;;;11.75;8.20;;;;;;;2.98;48.95;94356.69;5052405;28;20040;-71
2024/02/15 08:41:20;;;;;;;13.35;8.45;;;;;;;3.02;49.26;94373.50;5052790;28;20075;-71
2024/02/15 08:43:48;;;;;;;12.02;8.00;;;;;;;2.93;48.61;94333.78;5051924;28;20079;-71
2024/02/15 08:46:14;;;;;;;13.60;8.95;;;;;;;3.10;48.96;94365.16;5051874;28;20037;-71
2024/02/15 08:48:40;;;;;;;13.18;8.70;;;;;;;3.07;48.77;94344.66;5052056;28;20120;-70
2024/02/15 08:51:08;;;;;;;13.88;9.18;;;;;;;3.48;48.34;94355.41;5034429;28;20029;-71
2024/02/15 08:53:34;;;;;;;12.35;8.27;;;;;;;3.60;48.35;94358.59;5052839;28;20111;-71
2024/02/15 08:55:59;;;;;;;13.13;8.35;;;;;;;3.64;47.88;94349.16;5052376;28;20561;-71
2024/02/15 08:58:26;;;;;;;14.23;9.65;;;;;;;3.66;48.51;94360.22;5052225;28;20067;-71
2024/02/15 09:00:54;;;;;;;15.43;9.30;;;;;;;3.76;48.29;94352.38;5052212;28;20045;-71
2024/02/15 09:03:19;;;;;;;12.82;8.05;;;;;;;3.53;48.31;94337.78;5052288;28;20094;-71
2024/02/15 09:05:44;;;;;;;13.38;8.70;;;;;;;3.90;47.88;94357.94;5052548;28;20028;-71
2024/02/15 09:08:10;;;;;;;14.68;9.95;;;;;;;3.90;48.32;94356.13;5051646;28;20086;-71
2024/02/15 09:10:39;;;;;;;15.63;8.88;;;;;;;3.81;48.62;94357.66;5052757;28;20037;-71
2024/02/15 09:13:06;;;;;;;14.35;9.30;;;;;;;4.05;47.50;94352.75;5052288;28;20037;-71
2024/02/15 09:15:31;;;;;;;12.23;8.20;;;;;;;4.21;47.84;94349.88;5052695;28;20052;-71
2024/02/15 09:17:57;;;;;;;12.57;9.02;;;;;;;3.98;47.63;94352.97;5051674;28;20029;-71
2024/02/15 09:20:28;;;;;;;13.45;9.65;;;;;;;4.15;48.21;94342.25;5052973;28;20032;-71
2024/02/15 09:22:54;;;;;;;11.93;8.13;;;;;;;3.98;47.44;94339.81;5052352;28;20033;-69
2024/02/15 09:25:23;;;;;;;14.48;9.00;;;;;;;4.06;47.60;94341.94;5051841;28;20029;-71
2024/02/15 09:27:48;;;;;;;15.68;8.57;;;;;;;4.11;47.06;94344.56;5051627;28;20521;-71
2024/02/15 09:30:15;;;;;;;14.85;9.43;;;;;;;3.89;48.13;94341.38;5051277;28;20029;-71
2024/02/15 09:32:41;;;;;;;17.10;9.30;;;;;;;4.03;47.72;94341.66;5052031;28;20052;-71
2024/02/15 09:35:08;;;;;;;16.30;9.50;;;;;;;4.10;47.77;94337.75;5050859;28;20041;-71
2024/02/15 09:37:43;;;;;;;10.40;8.45;;;;;;;3.98;47.71;94325.84;5050256;28;20033;-71
2024/02/15 09:40:10;;;;;;;16.77;9.57;;;;;;;4.18;47.93;94337.22;5050908;28;20049;-71
2024/02/15 09:42:35;;;;;;;16.67;9.55;;;;;;;4.26;47.51;94336.72;5051538;28;20052;-71
2024/02/15 09:45:05;;;;;;;14.65;9.18;;;;;;;4.17;47.84;94329.59;5051580;28;20047;-71
2024/02/15 09:47:36;;;;;;;12.05;7.90;;;;;;;4.30;47.34;94336.25;5051614;28;20016;-71
2024/02/15 09:50:02;;;;;;;13.32;8.98;;;;;;;4.31;47.59;94329.94;5051305;28;20037;-71
2024/02/15 09:52:31;;;;;;;19.30;9.02;;;;;;;4.35;47.22;94334.41;5051577;28;20055;-71
2024/02/15 09:54:58;;;;;;;16.17;8.75;;;;;;;4.47;47.57;94347.31;5050998;28;20037;-71
2024/02/15 09:57:24;;;;;;;16.65;9.00;;;;;;;4.47;47.28;94342.06;5051426;28;20033;-71
2024/02/15 09:59:50;;;;;;;14.95;9.52;;;;;;;4.56;47.20;94311.50;5051596;28;20103;-71
2024/02/15 10:02:16;;;;;;;16.08;8.90;;;;;;;4.77;46.71;94326.25;5051940;28;20020;-71
2024/02/15 10:04:42;;;;;;;16.98;9.30;;;;;;;4.93;46.97;94319.94;5050955;28;20048;-69
2024/02/15 10:07:08;;;;;;;14.40;8.90;;;;;;;4.51;47.05;94322.03;5051308;28;20036;-71
2024/02/15 10:09:36;;;;;;;13.90;8.40;;;;;;;4.42;47.52;94282.25;5051123;28;20090;-71
2024/02/15 10:12:03;;;;;;;15.82;9.45;;;;;;;4.89;47.35;94316.25;5051454;28;20028;-71
2024/02/15 10:14:29;;;;;;;11.27;8.90;;;;;;;4.85;46.80;94317.81;5051754;28;20025;-71
2024/02/15 10:16:56;;;;;;;18.00;9.93;;;;;;;4.79;46.40;94289.91;5051437;28;20391;-71
2024/02/15 10:19:25;;;;;;;14.63;8.70;;;;;;;4.77;46.41;94293.84;5050884;28;20571;-71
2024/02/15 10:21:55;;;;;;;19.38;9.85;;;;;;;4.86;46.99;94285.16;5050897;28;20143;-71
2024/02/15 10:24:23;;;;;;;12.65;8.07;;;;;;;4.99;47.07;94302.28;5051538;28;20041;-71
2024/02/15 10:26:48;;;;;;;16.52;8.43;;;;;;;5.01;46.86;94295.66;5051318;28;20025;-70
2024/02/15 10:29:16;;;;;;;16.98;9.18;;;;;;;4.88;46.49;94280.41;5051273;28;20040;-71
2024/02/15 10:31:53;;;;;;;18.33;10.15;;;;;;;4.75;46.85;94264.34;5050524;28;20067;-71
2024/02/15 10:34:20;;;;;;;12.98;8.15;;;;;;;5.07;46.79;94294.63;5050525;28;20537;-71
2024/02/15 10:36:45;;;;;;;14.45;9.13;;;;;;;5.02;46.45;94291.19;5050769;28;20608;-71
2024/02/15 10:39:17;;;;;;;17.33;8.60;;;;;;;4.98;46.55;94284.88;5050388;28;20119;-71
2024/02/15 10:41:47;;;;;;;12.75;8.35;;;;;;;4.99;47.43;94287.22;5051006;28;20509;-72
2024/02/15 10:44:17;;;;;;;12.07;8.10;;;;;;;5.11;46.56;94279.84;5051144;28;20051;-71
2024/02/15 10:46:45;;;;;;;13.07;7.82;;;;;;;4.92;47.12;94273.53;5050643;28;20052;-70
2024/02/15 10:49:11;;;;;;;12.13;8.93;;;;;;;5.18;46.86;94278.78;5050153;28;20044;-70
2024/02/15 10:51:42;;;;;;;13.18;8.63;;;;;;;5.36;46.73;94273.69;5050035;28;20045;-69
2024/02/15 10:54:13;;;;;;;18.42;9.45;;;;;;;5.07;47.42;94281.44;5050450;28;20039;-71
2024/02/15 10:56:46;;;;;;;16.27;8.32;;;;;;;5.18;46.85;94278.78;5033007;28;20405;-70
2024/02/15 10:59:22;;;;;;;15.00;8.00;;;;;;;5.21;47.23;94278.22;5050954;28;20292;-71
2024/02/15 11:01:53;;;;;;;14.82;8.45;;;;;;;5.22;47.50;94269.25;5049750;28;20029;-71
2024/02/15 11:04:22;;;;;;;12.95;8.60;;;;;;;5.40;46.87;94272.09;5049837;28;20052;-71
2024/02/15 11:06:50;;;;;;;11.25;8.32;;;;;;;5.66;45.85;94270.16;5049555;28;20057;-71
2024/02/15 11:09:16;;;;;;;10.95;7.80;;;;;;;5.68;46.20;94256.69;5049668;28;20651;-71
2024/02/15 11:11:44;;;;;;;11.63;8.63;;;;;;;5.86;45.78;94264.00;5050290;28;20067;-71
2024/02/15 11:14:33;;;;;;;11.98;7.45;;;;;;;5.75;45.65;94255.34;5049957;28;20033;-71
2024/02/15 11:17:05;;;;;;;12.75;8.15;;;;;;;5.89;45.92;94253.69;5049993;28;20043;-71
2024/02/15 11:19:39;;;;;;;14.73;8.63;;;;;;;6.13;44.97;94250.34;5049707;28;20092;-70
2024/02/15 11:22:14;;;;;;;11.07;7.28;;;;;;;6.10;45.20;94259.63;5049859;28;20466;-70
2024/02/15 11:24:51;;;;;;;9.00;6.78;;;;;;;6.20;44.55;94251.69;5050002;28;20068;-70
2024/02/15 11:27:27;;;;;;;11.55;7.03;;;;;;;6.33;44.14;94253.69;5049994;28;20036;-70
2024/02/15 11:29:58;;;;;;;9.85;6.88;;;;;;;6.21;44.45;94257.75;5050054;28;20021;-70
2024/02/15 11:32:49;;;;;;;9.27;6.97;;;;;;;6.26;44.10;94255.06;5050534;28;20156;-71
2024/02/15 11:35:15;;;;;;;10.35;7.40;;;;;;;6.32;44.36;94253.94;5049980;28;20368;-70
2024/02/15 11:37:55;;;;;;;9.30;6.97;;;;;;;6.47;44.13;94243.28;5049543;28;20037;-71
2024/02/15 11:40:41;;;;;;;10.73;6.53;;;;;;;6.38;43.73;94248.38;5049496;28;20095;-71
2024/02/15 11:43:07;;;;;;;10.98;6.57;;;;;;;6.34;43.37;94242.06;5050020;28;20383;-71